sensor_id;sensor_type;location;lat;lon;timestamp;temperature;humidity
22098;DHT22;11215;51.938;8.464;2023-02-13T00:02:11;11.30;72.90
22098;DHT22;11215;51.938;8.464;2023-02-13T00:04:38;11.30;73.70
22098;DHT22;11215;51.938;8.464;2023-02-13T00:07:04;11.30;72.90
22098;DHT22;11215;51.938;8.464;2023-02-13T00:09:29;11.30;72.90
22098;DHT22;11215;51.938;8.464;2023-02-13T00:11:55;11.30;72.90
22098;DHT22;11215;51.938;8.464;2023-02-13T00:14:21;11.30;72.90
22098;DHT22;11215;51.938;8.464;2023-02-13T00:16:46;11.30;73.40
22098;DHT22;11215;51.938;8.464;2023-02-13T00:19:15;11.30;72.90
22098;DHT22;11215;51.938;8.464;2023-02-13T00:21:44;11.30;72.90
22098;DHT22;11215;51.938;8.464;2023-02-13T00:24:15;11.30;72.90
22098;DHT22;11215;51.938;8.464;2023-02-13T00:26:40;11.30;72.90
22098;DHT22;11215;51.938;8.464;2023-02-13T00:29:06;11.30;72.90
22098;DHT22;11215;51.938;8.464;2023-02-13T00:31:32;11.20;72.80
22098;DHT22;11215;51.938;8.464;2023-02-13T00:33:57;11.30;72.90
22098;DHT22;11215;51.938;8.464;2023-02-13T00:36:26;11.30;72.90
22098;DHT22;11215;51.938;8.464;2023-02-13T00:38:53;11.20;72.80
22098;DHT22;11215;51.938;8.464;2023-02-13T00:41:19;11.30;72.90
22098;DHT22;11215;51.938;8.464;2023-02-13T00:43:46;11.30;73.70
22098;DHT22;11215;51.938;8.464;2023-02-13T00:46:15;11.30;72.90
22098;DHT22;11215;51.938;8.464;2023-02-13T00:48:40;11.30;72.90
22098;DHT22;11215;51.938;8.464;2023-02-13T00:51:07;11.20;72.80
22098;DHT22;11215;51.938;8.464;2023-02-13T00:53:36;11.30;72.80
22098;DHT22;11215;51.938;8.464;2023-02-13T00:56:08;11.30;72.80
22098;DHT22;11215;51.938;8.464;2023-02-13T00:58:37;11.30;72.80
22098;DHT22;11215;51.938;8.464;2023-02-13T01:01:05;11.20;72.70
22098;DHT22;11215;51.938;8.464;2023-02-13T01:03:31;11.20;72.60
22098;DHT22;11215;51.938;8.464;2023-02-13T01:05:57;11.20;72.60
22098;DHT22;11215;51.938;8.464;2023-02-13T01:08:23;11.20;72.60
22098;DHT22;11215;51.938;8.464;2023-02-13T01:10:48;11.20;72.60
22098;DHT22;11215;51.938;8.464;2023-02-13T01:13:16;11.20;72.60
22098;DHT22;11215;51.938;8.464;2023-02-13T01:15:46;11.20;72.70
22098;DHT22;11215;51.938;8.464;2023-02-13T01:18:13;11.20;72.60
22098;DHT22;11215;51.938;8.464;2023-02-13T01:20:40;11.20;72.60
22098;DHT22;11215;51.938;8.464;2023-02-13T01:23:06;11.20;72.60
22098;DHT22;11215;51.938;8.464;2023-02-13T01:25:31;11.20;72.70
22098;DHT22;11215;51.938;8.464;2023-02-13T01:27:57;11.20;72.70
22098;DHT22;11215;51.938;8.464;2023-02-13T01:30:22;11.20;72.70
22098;DHT22;11215;51.938;8.464;2023-02-13T01:32:51;11.10;72.60
22098;DHT22;11215;51.938;8.464;2023-02-13T01:35:16;11.20;72.60
22098;DHT22;11215;51.938;8.464;2023-02-13T01:37:42;11.20;72.70
22098;DHT22;11215;51.938;8.464;2023-02-13T01:40:12;11.10;72.70
22098;DHT22;11215;51.938;8.464;2023-02-13T01:42:38;11.10;72.70
22098;DHT22;11215;51.938;8.464;2023-02-13T01:45:16;11.20;72.80
22098;DHT22;11215;51.938;8.464;2023-02-13T01:47:46;11.10;72.80
22098;DHT22;11215;51.938;8.464;2023-02-13T01:50:18;11.10;72.80
22098;DHT22;11215;51.938;8.464;2023-02-13T01:52:54;11.10;72.80
22098;DHT22;11215;51.938;8.464;2023-02-13T01:55:23;11.10;72.80
22098;DHT22;11215;51.938;8.464;2023-02-13T01:57:56;11.10;72.90
22098;DHT22;11215;51.938;8.464;2023-02-13T02:00:23;11.10;72.90
22098;DHT22;11215;51.938;8.464;2023-02-13T02:02:54;11.10;72.90
22098;DHT22;11215;51.938;8.464;2023-02-13T02:05:23;11.10;72.90
22098;DHT22;11215;51.938;8.464;2023-02-13T02:07:50;11.10;72.90
22098;DHT22;11215;51.938;8.464;2023-02-13T02:10:18;11.10;72.90
22098;DHT22;11215;51.938;8.464;2023-02-13T02:15:25;11.10;73.00
22098;DHT22;11215;51.938;8.464;2023-02-13T02:17:50;11.10;72.90
22098;DHT22;11215;51.938;8.464;2023-02-13T02:29:28;11.10;73.10
22098;DHT22;11215;51.938;8.464;2023-02-13T02:32:30;11.10;73.20
22098;DHT22;11215;51.938;8.464;2023-02-13T02:43:57;11.00;73.20
22098;DHT22;11215;51.938;8.464;2023-02-13T02:49:31;11.10;73.20
22098;DHT22;11215;51.938;8.464;2023-02-13T02:52:30;11.00;73.00
22098;DHT22;11215;51.938;8.464;2023-02-13T02:55:07;11.00;73.10
22098;DHT22;11215;51.938;8.464;2023-02-13T02:57:46;11.00;73.10
22098;DHT22;11215;51.938;8.464;2023-02-13T03:00:34;11.00;73.20
22098;DHT22;11215;51.938;8.464;2023-02-13T03:03:22;11.00;73.10
22098;DHT22;11215;51.938;8.464;2023-02-13T03:06:39;11.00;73.20
22098;DHT22;11215;51.938;8.464;2023-02-13T03:09:11;11.00;73.30
22098;DHT22;11215;51.938;8.464;2023-02-13T03:11:58;11.00;73.20
22098;DHT22;11215;51.938;8.464;2023-02-13T03:14:42;11.00;73.20
22098;DHT22;11215;51.938;8.464;2023-02-13T03:17:14;10.90;73.10
22098;DHT22;11215;51.938;8.464;2023-02-13T03:23:16;10.90;73.30
22098;DHT22;11215;51.938;8.464;2023-02-13T03:25:55;10.90;74.10
22098;DHT22;11215;51.938;8.464;2023-02-13T03:28:51;10.90;73.20
22098;DHT22;11215;51.938;8.464;2023-02-13T03:34:10;10.90;73.20
22098;DHT22;11215;51.938;8.464;2023-02-13T03:36:56;10.90;73.30
22098;DHT22;11215;51.938;8.464;2023-02-13T03:40:06;10.90;73.30
22098;DHT22;11215;51.938;8.464;2023-02-13T03:42:54;10.90;73.50
22098;DHT22;11215;51.938;8.464;2023-02-13T03:45:28;10.90;73.40
22098;DHT22;11215;51.938;8.464;2023-02-13T03:48:16;10.90;73.30
22098;DHT22;11215;51.938;8.464;2023-02-13T03:51:03;10.90;73.30
22098;DHT22;11215;51.938;8.464;2023-02-13T03:53:33;10.90;73.30
22098;DHT22;11215;51.938;8.464;2023-02-13T03:56:01;10.90;73.40
22098;DHT22;11215;51.938;8.464;2023-02-13T03:58:49;10.90;73.40
22098;DHT22;11215;51.938;8.464;2023-02-13T04:01:35;10.90;73.30
22098;DHT22;11215;51.938;8.464;2023-02-13T04:04:34;10.90;73.30
22098;DHT22;11215;51.938;8.464;2023-02-13T04:07:02;10.90;73.40
22098;DHT22;11215;51.938;8.464;2023-02-13T04:09:30;10.90;73.30
22098;DHT22;11215;51.938;8.464;2023-02-13T04:12:18;10.90;73.30
22098;DHT22;11215;51.938;8.464;2023-02-13T04:14:54;10.90;73.30
22098;DHT22;11215;51.938;8.464;2023-02-13T04:17:32;10.90;73.20
22098;DHT22;11215;51.938;8.464;2023-02-13T04:19:59;10.90;73.20
22098;DHT22;11215;51.938;8.464;2023-02-13T04:22:24;10.90;73.20
22098;DHT22;11215;51.938;8.464;2023-02-13T04:24:50;10.90;73.20
22098;DHT22;11215;51.938;8.464;2023-02-13T04:27:19;10.90;73.20
22098;DHT22;11215;51.938;8.464;2023-02-13T04:29:44;10.90;73.20
22098;DHT22;11215;51.938;8.464;2023-02-13T04:32:10;10.90;73.20
22098;DHT22;11215;51.938;8.464;2023-02-13T04:34:38;10.90;73.20
22098;DHT22;11215;51.938;8.464;2023-02-13T04:37:07;10.90;73.10
22098;DHT22;11215;51.938;8.464;2023-02-13T04:39:34;10.90;73.00
22098;DHT22;11215;51.938;8.464;2023-02-13T04:42:00;10.90;73.00
22098;DHT22;11215;51.938;8.464;2023-02-13T04:44:26;10.90;73.00
22098;DHT22;11215;51.938;8.464;2023-02-13T04:46:51;10.90;73.00
22098;DHT22;11215;51.938;8.464;2023-02-13T04:49:17;10.90;73.00
22098;DHT22;11215;51.938;8.464;2023-02-13T04:51:42;10.90;73.00
22098;DHT22;11215;51.938;8.464;2023-02-13T04:54:11;10.90;73.00
22098;DHT22;11215;51.938;8.464;2023-02-13T04:56:36;10.90;72.90
22098;DHT22;11215;51.938;8.464;2023-02-13T04:59:05;10.90;72.90
22098;DHT22;11215;51.938;8.464;2023-02-13T05:01:30;10.90;72.90
22098;DHT22;11215;51.938;8.464;2023-02-13T05:04:01;10.80;72.90
22098;DHT22;11215;51.938;8.464;2023-02-13T05:06:27;10.90;73.00
22098;DHT22;11215;51.938;8.464;2023-02-13T05:08:58;10.80;72.90
22098;DHT22;11215;51.938;8.464;2023-02-13T05:11:23;10.90;72.90
22098;DHT22;11215;51.938;8.464;2023-02-13T05:13:49;10.80;72.90
22098;DHT22;11215;51.938;8.464;2023-02-13T05:16:15;10.80;72.90
22098;DHT22;11215;51.938;8.464;2023-02-13T05:18:40;10.90;72.90
22098;DHT22;11215;51.938;8.464;2023-02-13T05:21:06;10.80;72.80
22098;DHT22;11215;51.938;8.464;2023-02-13T05:23:50;10.80;72.80
22098;DHT22;11215;51.938;8.464;2023-02-13T05:26:16;10.80;72.80
22098;DHT22;11215;51.938;8.464;2023-02-13T05:28:41;10.80;72.90
22098;DHT22;11215;51.938;8.464;2023-02-13T05:31:25;10.80;72.80
22098;DHT22;11215;51.938;8.464;2023-02-13T05:33:54;10.80;72.80
22098;DHT22;11215;51.938;8.464;2023-02-13T05:36:20;10.80;72.80
22098;DHT22;11215;51.938;8.464;2023-02-13T05:38:45;10.80;72.90
22098;DHT22;11215;51.938;8.464;2023-02-13T05:41:11;10.80;72.90
22098;DHT22;11215;51.938;8.464;2023-02-13T05:43:38;10.80;72.90
22098;DHT22;11215;51.938;8.464;2023-02-13T05:46:05;10.80;72.90
22098;DHT22;11215;51.938;8.464;2023-02-13T05:48:31;10.80;72.90
22098;DHT22;11215;51.938;8.464;2023-02-13T05:50:57;10.80;72.90
22098;DHT22;11215;51.938;8.464;2023-02-13T05:53:22;10.80;73.00
22098;DHT22;11215;51.938;8.464;2023-02-13T05:55:48;10.80;72.90
22098;DHT22;11215;51.938;8.464;2023-02-13T05:58:17;10.80;72.90
22098;DHT22;11215;51.938;8.464;2023-02-13T06:00:43;10.80;72.90
22098;DHT22;11215;51.938;8.464;2023-02-13T06:03:08;10.80;72.90
22098;DHT22;11215;51.938;8.464;2023-02-13T06:05:34;10.80;72.90
22098;DHT22;11215;51.938;8.464;2023-02-13T06:08:00;10.80;73.00
22098;DHT22;11215;51.938;8.464;2023-02-13T06:10:25;10.80;73.00
22098;DHT22;11215;51.938;8.464;2023-02-13T06:12:51;10.80;72.90
22098;DHT22;11215;51.938;8.464;2023-02-13T06:15:17;10.80;72.90
22098;DHT22;11215;51.938;8.464;2023-02-13T06:17:42;10.80;72.90
22098;DHT22;11215;51.938;8.464;2023-02-13T06:20:08;10.80;72.90
22098;DHT22;11215;51.938;8.464;2023-02-13T06:22:34;10.80;72.80
22098;DHT22;11215;51.938;8.464;2023-02-13T06:25:02;10.80;72.80
22098;DHT22;11215;51.938;8.464;2023-02-13T06:27:28;10.70;72.90
22098;DHT22;11215;51.938;8.464;2023-02-13T06:29:54;10.70;72.80
22098;DHT22;11215;51.938;8.464;2023-02-13T06:32:19;10.70;72.80
22098;DHT22;11215;51.938;8.464;2023-02-13T06:34:45;10.70;72.80
22098;DHT22;11215;51.938;8.464;2023-02-13T06:37:11;10.70;72.90
22098;DHT22;11215;51.938;8.464;2023-02-13T06:39:37;10.70;72.80
22098;DHT22;11215;51.938;8.464;2023-02-13T06:42:03;10.70;72.90
22098;DHT22;11215;51.938;8.464;2023-02-13T06:44:28;10.70;72.90
22098;DHT22;11215;51.938;8.464;2023-02-13T06:46:54;10.70;72.90
22098;DHT22;11215;51.938;8.464;2023-02-13T06:49:20;10.70;72.90
22098;DHT22;11215;51.938;8.464;2023-02-13T06:51:45;10.70;73.00
22098;DHT22;11215;51.938;8.464;2023-02-13T06:54:23;10.70;73.00
22098;DHT22;11215;51.938;8.464;2023-02-13T06:56:51;10.70;73.10
22098;DHT22;11215;51.938;8.464;2023-02-13T06:59:17;10.70;73.10
22098;DHT22;11215;51.938;8.464;2023-02-13T07:01:42;10.70;73.10
22098;DHT22;11215;51.938;8.464;2023-02-13T07:04:11;10.60;73.10
22098;DHT22;11215;51.938;8.464;2023-02-13T07:06:36;10.70;73.10
22098;DHT22;11215;51.938;8.464;2023-02-13T07:09:02;10.60;73.00
22098;DHT22;11215;51.938;8.464;2023-02-13T07:11:28;10.70;73.20
22098;DHT22;11215;51.938;8.464;2023-02-13T07:13:54;10.70;73.10
22098;DHT22;11215;51.938;8.464;2023-02-13T07:16:20;10.70;73.10
22098;DHT22;11215;51.938;8.464;2023-02-13T07:18:45;10.60;73.10
22098;DHT22;11215;51.938;8.464;2023-02-13T07:21:11;10.70;73.10
22098;DHT22;11215;51.938;8.464;2023-02-13T07:23:37;10.70;73.20
22098;DHT22;11215;51.938;8.464;2023-02-13T07:26:03;10.70;73.20
22098;DHT22;11215;51.938;8.464;2023-02-13T07:28:29;10.70;73.20
22098;DHT22;11215;51.938;8.464;2023-02-13T07:30:54;10.70;73.20
22098;DHT22;11215;51.938;8.464;2023-02-13T07:33:20;10.60;73.20
22098;DHT22;11215;51.938;8.464;2023-02-13T07:35:47;10.70;73.20
22098;DHT22;11215;51.938;8.464;2023-02-13T07:38:13;10.60;73.20
22098;DHT22;11215;51.938;8.464;2023-02-13T07:40:38;10.60;73.00
22098;DHT22;11215;51.938;8.464;2023-02-13T07:43:04;10.60;73.10
22098;DHT22;11215;51.938;8.464;2023-02-13T07:45:30;10.60;73.10
22098;DHT22;11215;51.938;8.464;2023-02-13T07:47:56;10.60;73.20
22098;DHT22;11215;51.938;8.464;2023-02-13T07:50:22;10.60;73.20
22098;DHT22;11215;51.938;8.464;2023-02-13T07:52:55;10.60;73.20
22098;DHT22;11215;51.938;8.464;2023-02-13T07:55:21;10.60;73.20
22098;DHT22;11215;51.938;8.464;2023-02-13T07:57:47;10.60;74.10
22098;DHT22;11215;51.938;8.464;2023-02-13T08:00:14;10.60;73.20
22098;DHT22;11215;51.938;8.464;2023-02-13T08:02:40;10.60;73.20
22098;DHT22;11215;51.938;8.464;2023-02-13T08:05:06;10.60;73.20
22098;DHT22;11215;51.938;8.464;2023-02-13T08:07:32;10.60;73.20
22098;DHT22;11215;51.938;8.464;2023-02-13T08:09:57;10.60;73.20
22098;DHT22;11215;51.938;8.464;2023-02-13T08:12:41;10.60;73.20
22098;DHT22;11215;51.938;8.464;2023-02-13T08:15:11;10.60;73.10
22098;DHT22;11215;51.938;8.464;2023-02-13T08:17:37;10.60;73.10
22098;DHT22;11215;51.938;8.464;2023-02-13T08:20:03;10.60;73.10
22098;DHT22;11215;51.938;8.464;2023-02-13T08:22:29;10.60;73.10
22098;DHT22;11215;51.938;8.464;2023-02-13T08:24:55;10.70;73.20
22098;DHT22;11215;51.938;8.464;2023-02-13T08:27:20;10.60;73.20
22098;DHT22;11215;51.938;8.464;2023-02-13T08:29:48;10.70;73.10
22098;DHT22;11215;51.938;8.464;2023-02-13T08:32:14;10.60;73.00
22098;DHT22;11215;51.938;8.464;2023-02-13T08:34:40;10.60;73.00
22098;DHT22;11215;51.938;8.464;2023-02-13T08:37:05;10.70;73.10
22098;DHT22;11215;51.938;8.464;2023-02-13T08:39:31;10.70;73.00
22098;DHT22;11215;51.938;8.464;2023-02-13T08:41:56;10.70;73.00
22098;DHT22;11215;51.938;8.464;2023-02-13T08:44:22;10.70;73.00
22098;DHT22;11215;51.938;8.464;2023-02-13T08:46:48;10.70;73.00
22098;DHT22;11215;51.938;8.464;2023-02-13T08:49:13;10.70;73.00
22098;DHT22;11215;51.938;8.464;2023-02-13T08:51:39;10.70;73.00
22098;DHT22;11215;51.938;8.464;2023-02-13T08:54:04;10.70;72.90
22098;DHT22;11215;51.938;8.464;2023-02-13T08:56:30;10.80;72.90
22098;DHT22;11215;51.938;8.464;2023-02-13T08:58:56;10.80;72.90
22098;DHT22;11215;51.938;8.464;2023-02-13T09:01:21;10.80;72.90
22098;DHT22;11215;51.938;8.464;2023-02-13T09:03:48;10.80;72.90
22098;DHT22;11215;51.938;8.464;2023-02-13T09:06:14;10.80;72.70
22098;DHT22;11215;51.938;8.464;2023-02-13T09:08:40;10.80;72.60
22098;DHT22;11215;51.938;8.464;2023-02-13T09:11:06;10.80;72.60
22098;DHT22;11215;51.938;8.464;2023-02-13T09:13:32;10.80;72.70
22098;DHT22;11215;51.938;8.464;2023-02-13T09:16:06;10.80;72.70
22098;DHT22;11215;51.938;8.464;2023-02-13T09:18:32;10.80;72.60
22098;DHT22;11215;51.938;8.464;2023-02-13T09:20:59;10.90;72.70
22098;DHT22;11215;51.938;8.464;2023-02-13T09:23:26;10.90;72.70
22098;DHT22;11215;51.938;8.464;2023-02-13T09:25:51;10.90;72.60
22098;DHT22;11215;51.938;8.464;2023-02-13T09:28:17;10.90;72.60
22098;DHT22;11215;51.938;8.464;2023-02-13T09:30:43;10.90;73.30
22098;DHT22;11215;51.938;8.464;2023-02-13T09:33:12;11.00;72.40
22098;DHT22;11215;51.938;8.464;2023-02-13T09:35:37;11.00;72.40
22098;DHT22;11215;51.938;8.464;2023-02-13T09:38:06;11.00;72.40
22098;DHT22;11215;51.938;8.464;2023-02-13T09:40:38;11.00;72.40
22098;DHT22;11215;51.938;8.464;2023-02-13T09:43:30;11.00;72.40
22098;DHT22;11215;51.938;8.464;2023-02-13T09:46:07;11.10;72.20
22098;DHT22;11215;51.938;8.464;2023-02-13T09:48:38;11.10;72.30
22098;DHT22;11215;51.938;8.464;2023-02-13T09:51:05;11.10;72.30
22098;DHT22;11215;51.938;8.464;2023-02-13T09:53:31;11.10;72.20
22098;DHT22;11215;51.938;8.464;2023-02-13T09:58:52;11.20;72.10
22098;DHT22;11215;51.938;8.464;2023-02-13T10:01:38;11.20;71.80
22098;DHT22;11215;51.938;8.464;2023-02-13T10:06:49;11.20;71.70
22098;DHT22;11215;51.938;8.464;2023-02-13T10:10:00;11.30;71.90
22098;DHT22;11215;51.938;8.464;2023-02-13T10:15:20;11.30;71.70
22098;DHT22;11215;51.938;8.464;2023-02-13T10:17:55;11.30;71.80
22098;DHT22;11215;51.938;8.464;2023-02-13T10:20:55;11.40;71.60
22098;DHT22;11215;51.938;8.464;2023-02-13T10:23:35;11.40;71.40
22098;DHT22;11215;51.938;8.464;2023-02-13T10:26:06;11.40;71.50
22098;DHT22;11215;51.938;8.464;2023-02-13T10:28:40;11.40;71.60
22098;DHT22;11215;51.938;8.464;2023-02-13T10:31:11;11.50;71.60
22098;DHT22;11215;51.938;8.464;2023-02-13T10:33:52;11.40;71.50
22098;DHT22;11215;51.938;8.464;2023-02-13T10:50:22;11.60;70.80
22098;DHT22;11215;51.938;8.464;2023-02-13T10:58:19;11.60;70.60
22098;DHT22;11215;51.938;8.464;2023-02-13T11:01:16;11.70;70.80
22098;DHT22;11215;51.938;8.464;2023-02-13T11:03:43;11.70;70.50
22098;DHT22;11215;51.938;8.464;2023-02-13T11:06:14;11.70;71.00
22098;DHT22;11215;51.938;8.464;2023-02-13T11:08:43;11.80;70.70
22098;DHT22;11215;51.938;8.464;2023-02-13T11:11:33;11.80;70.80
22098;DHT22;11215;51.938;8.464;2023-02-13T11:14:15;11.90;70.40
22098;DHT22;11215;51.938;8.464;2023-02-13T11:16:51;11.90;70.40
22098;DHT22;11215;51.938;8.464;2023-02-13T11:21:53;12.00;70.80
22098;DHT22;11215;51.938;8.464;2023-02-13T11:24:24;12.10;70.40
22098;DHT22;11215;51.938;8.464;2023-02-13T11:27:00;12.10;70.20
22098;DHT22;11215;51.938;8.464;2023-02-13T11:29:29;12.20;70.70
22098;DHT22;11215;51.938;8.464;2023-02-13T11:32:25;12.20;70.10
22098;DHT22;11215;51.938;8.464;2023-02-13T11:34:52;12.30;69.60
22098;DHT22;11215;51.938;8.464;2023-02-13T11:37:26;12.30;69.90
22098;DHT22;11215;51.938;8.464;2023-02-13T11:39:58;12.40;69.70
22098;DHT22;11215;51.938;8.464;2023-02-13T11:42:31;12.40;69.40
22098;DHT22;11215;51.938;8.464;2023-02-13T11:45:20;12.40;69.10
22098;DHT22;11215;51.938;8.464;2023-02-13T11:47:46;12.40;68.20
22098;DHT22;11215;51.938;8.464;2023-02-13T11:52:57;12.50;68.50
22098;DHT22;11215;51.938;8.464;2023-02-13T11:55:33;12.50;68.50
22098;DHT22;11215;51.938;8.464;2023-02-13T12:00:41;12.50;68.00
22098;DHT22;11215;51.938;8.464;2023-02-13T12:03:29;12.50;68.40
22098;DHT22;11215;51.938;8.464;2023-02-13T12:06:13;12.50;67.40
22098;DHT22;11215;51.938;8.464;2023-02-13T12:08:45;12.50;67.70
22098;DHT22;11215;51.938;8.464;2023-02-13T12:11:38;12.50;67.90
22098;DHT22;11215;51.938;8.464;2023-02-13T12:14:09;12.60;67.20
22098;DHT22;11215;51.938;8.464;2023-02-13T12:16:47;12.50;67.60
22098;DHT22;11215;51.938;8.464;2023-02-13T12:19:34;12.50;67.10
22098;DHT22;11215;51.938;8.464;2023-02-13T12:30:39;12.40;67.50
22098;DHT22;11215;51.938;8.464;2023-02-13T12:54:35;12.50;68.30
22098;DHT22;11215;51.938;8.464;2023-02-13T13:07:35;12.60;67.80
22098;DHT22;11215;51.938;8.464;2023-02-13T13:26:43;12.80;68.50
22098;DHT22;11215;51.938;8.464;2023-02-13T13:29:50;12.80;67.20
22098;DHT22;11215;51.938;8.464;2023-02-13T13:32:08;12.90;67.50
22098;DHT22;11215;51.938;8.464;2023-02-13T13:34:38;12.90;67.60
22098;DHT22;11215;51.938;8.464;2023-02-13T13:37:06;12.90;67.70
22098;DHT22;11215;51.938;8.464;2023-02-13T13:50:43;13.00;66.50
22098;DHT22;11215;51.938;8.464;2023-02-13T13:53:15;13.00;67.40
22098;DHT22;11215;51.938;8.464;2023-02-13T14:03:45;13.10;66.30
22098;DHT22;11215;51.938;8.464;2023-02-13T14:06:14;13.20;66.90
22098;DHT22;11215;51.938;8.464;2023-02-13T14:13:55;13.30;65.90
22098;DHT22;11215;51.938;8.464;2023-02-13T14:16:42;13.20;66.60
22098;DHT22;11215;51.938;8.464;2023-02-13T14:21:49;13.30;66.10
22098;DHT22;11215;51.938;8.464;2023-02-13T14:24:17;13.30;66.70
22098;DHT22;11215;51.938;8.464;2023-02-13T14:26:49;13.30;66.50
22098;DHT22;11215;51.938;8.464;2023-02-13T14:32:03;13.30;67.10
22098;DHT22;11215;51.938;8.464;2023-02-13T14:34:33;13.40;66.10
22098;DHT22;11215;51.938;8.464;2023-02-13T14:37:13;13.40;66.50
22098;DHT22;11215;51.938;8.464;2023-02-13T14:42:36;13.40;65.60
22098;DHT22;11215;51.938;8.464;2023-02-13T14:45:04;13.40;66.40
22098;DHT22;11215;51.938;8.464;2023-02-13T14:47:40;13.40;66.20
22098;DHT22;11215;51.938;8.464;2023-02-13T14:50:19;13.50;66.30
22098;DHT22;11215;51.938;8.464;2023-02-13T14:52:47;13.40;65.70
22098;DHT22;11215;51.938;8.464;2023-02-13T14:55:39;13.50;66.00
22098;DHT22;11215;51.938;8.464;2023-02-13T14:58:21;13.50;65.40
22098;DHT22;11215;51.938;8.464;2023-02-13T15:00:59;13.50;65.20
22098;DHT22;11215;51.938;8.464;2023-02-13T15:06:11;13.50;65.60
22098;DHT22;11215;51.938;8.464;2023-02-13T15:08:48;13.40;65.40
22098;DHT22;11215;51.938;8.464;2023-02-13T15:11:40;13.40;65.20
22098;DHT22;11215;51.938;8.464;2023-02-13T15:14:26;13.50;65.20
22098;DHT22;11215;51.938;8.464;2023-02-13T15:17:01;13.40;65.30
22098;DHT22;11215;51.938;8.464;2023-02-13T15:19:31;13.40;65.50
22098;DHT22;11215;51.938;8.464;2023-02-13T15:22:00;13.40;65.50
22098;DHT22;11215;51.938;8.464;2023-02-13T15:24:30;13.40;65.50
22098;DHT22;11215;51.938;8.464;2023-02-13T15:27:04;13.40;65.50
22098;DHT22;11215;51.938;8.464;2023-02-13T15:29:30;13.40;65.20
22098;DHT22;11215;51.938;8.464;2023-02-13T15:31:56;13.40;65.50
22098;DHT22;11215;51.938;8.464;2023-02-13T15:34:28;13.40;65.40
22098;DHT22;11215;51.938;8.464;2023-02-13T15:36:55;13.40;65.30
22098;DHT22;11215;51.938;8.464;2023-02-13T15:39:26;13.40;65.50
22098;DHT22;11215;51.938;8.464;2023-02-13T15:41:57;13.40;65.20
22098;DHT22;11215;51.938;8.464;2023-02-13T15:44:33;13.30;65.30
22098;DHT22;11215;51.938;8.464;2023-02-13T15:47:35;13.30;65.00
22098;DHT22;11215;51.938;8.464;2023-02-13T15:50:01;13.30;64.60
22098;DHT22;11215;51.938;8.464;2023-02-13T15:52:35;13.30;65.30
22098;DHT22;11215;51.938;8.464;2023-02-13T15:55:02;13.30;65.00
22098;DHT22;11215;51.938;8.464;2023-02-13T15:57:28;13.30;65.30
22098;DHT22;11215;51.938;8.464;2023-02-13T15:59:56;13.20;65.10
22098;DHT22;11215;51.938;8.464;2023-02-13T16:02:30;13.20;65.20
22098;DHT22;11215;51.938;8.464;2023-02-13T16:05:00;13.10;64.90
22098;DHT22;11215;51.938;8.464;2023-02-13T16:07:26;13.10;65.00
22098;DHT22;11215;51.938;8.464;2023-02-13T16:10:25;13.10;65.00
22098;DHT22;11215;51.938;8.464;2023-02-13T16:12:52;13.10;64.60
22098;DHT22;11215;51.938;8.464;2023-02-13T16:15:20;13.00;65.00
22098;DHT22;11215;51.938;8.464;2023-02-13T16:20:53;12.90;64.60
22098;DHT22;11215;51.938;8.464;2023-02-13T16:23:19;12.90;65.10
22098;DHT22;11215;51.938;8.464;2023-02-13T16:25:46;12.80;65.00
22098;DHT22;11215;51.938;8.464;2023-02-13T16:28:22;12.80;65.10
22098;DHT22;11215;51.938;8.464;2023-02-13T16:30:59;12.70;64.90
22098;DHT22;11215;51.938;8.464;2023-02-13T16:35:59;12.70;65.20
22098;DHT22;11215;51.938;8.464;2023-02-13T16:38:33;12.60;65.00
22098;DHT22;11215;51.938;8.464;2023-02-13T16:44:29;12.50;64.80
22098;DHT22;11215;51.938;8.464;2023-02-13T16:47:04;12.40;65.00
22098;DHT22;11215;51.938;8.464;2023-02-13T16:49:36;12.40;65.10
22098;DHT22;11215;51.938;8.464;2023-02-13T16:52:19;12.30;65.10
22098;DHT22;11215;51.938;8.464;2023-02-13T16:54:59;12.20;65.10
22098;DHT22;11215;51.938;8.464;2023-02-13T16:57:33;12.20;65.10
22098;DHT22;11215;51.938;8.464;2023-02-13T17:00:20;12.10;65.20
22098;DHT22;11215;51.938;8.464;2023-02-13T17:02:47;12.10;65.20
22098;DHT22;11215;51.938;8.464;2023-02-13T17:05:23;12.00;65.40
22098;DHT22;11215;51.938;8.464;2023-02-13T17:07:51;11.90;65.50
22098;DHT22;11215;51.938;8.464;2023-02-13T17:12:49;11.80;65.80
22098;DHT22;11215;51.938;8.464;2023-02-13T17:15:20;11.60;66.30
22098;DHT22;11215;51.938;8.464;2023-02-13T17:17:48;11.50;66.50
22098;DHT22;11215;51.938;8.464;2023-02-13T17:20:20;11.50;66.60
22098;DHT22;11215;51.938;8.464;2023-02-13T17:26:39;11.50;66.50
22098;DHT22;11215;51.938;8.464;2023-02-13T17:29:05;11.50;66.50
22098;DHT22;11215;51.938;8.464;2023-02-13T17:31:31;11.40;66.40
22098;DHT22;11215;51.938;8.464;2023-02-13T17:33:57;11.40;66.50
22098;DHT22;11215;51.938;8.464;2023-02-13T17:36:22;11.30;66.50
22098;DHT22;11215;51.938;8.464;2023-02-13T17:38:48;11.30;66.60
22098;DHT22;11215;51.938;8.464;2023-02-13T17:41:14;11.30;66.70
22098;DHT22;11215;51.938;8.464;2023-02-13T17:43:40;11.20;66.60
22098;DHT22;11215;51.938;8.464;2023-02-13T17:46:06;11.20;66.60
22098;DHT22;11215;51.938;8.464;2023-02-13T17:48:32;11.20;66.60
22098;DHT22;11215;51.938;8.464;2023-02-13T17:50:57;11.10;66.50
22098;DHT22;11215;51.938;8.464;2023-02-13T17:53:25;11.10;66.60
22098;DHT22;11215;51.938;8.464;2023-02-13T17:55:52;11.10;66.60
22098;DHT22;11215;51.938;8.464;2023-02-13T17:58:17;11.00;66.40
22098;DHT22;11215;51.938;8.464;2023-02-13T18:00:43;11.00;66.40
22098;DHT22;11215;51.938;8.464;2023-02-13T18:03:10;10.90;66.40
22098;DHT22;11215;51.938;8.464;2023-02-13T18:05:36;10.90;66.40
22098;DHT22;11215;51.938;8.464;2023-02-13T18:08:02;10.90;66.50
22098;DHT22;11215;51.938;8.464;2023-02-13T18:10:30;10.80;66.40
22098;DHT22;11215;51.938;8.464;2023-02-13T18:12:56;10.70;66.40
22098;DHT22;11215;51.938;8.464;2023-02-13T18:15:32;10.70;66.40
22098;DHT22;11215;51.938;8.464;2023-02-13T18:17:58;10.60;66.50
22098;DHT22;11215;51.938;8.464;2023-02-13T18:20:24;10.60;66.60
22098;DHT22;11215;51.938;8.464;2023-02-13T18:22:50;10.50;66.70
22098;DHT22;11215;51.938;8.464;2023-02-13T18:25:16;10.50;66.70
22098;DHT22;11215;51.938;8.464;2023-02-13T18:27:42;10.40;66.70
22098;DHT22;11215;51.938;8.464;2023-02-13T18:30:10;10.40;66.70
22098;DHT22;11215;51.938;8.464;2023-02-13T18:32:36;10.30;66.80
22098;DHT22;11215;51.938;8.464;2023-02-13T18:35:02;10.30;66.80
22098;DHT22;11215;51.938;8.464;2023-02-13T18:37:27;10.30;66.90
22098;DHT22;11215;51.938;8.464;2023-02-13T18:39:54;10.20;66.80
22098;DHT22;11215;51.938;8.464;2023-02-13T18:42:21;10.20;66.90
22098;DHT22;11215;51.938;8.464;2023-02-13T18:44:46;10.10;66.80
22098;DHT22;11215;51.938;8.464;2023-02-13T18:47:12;10.10;66.90